INDIA METEOROLOGICAL DEPARTMENT, R.M.C. NEW DELHI
Dated:24-06-2018
METARS


Agartala   
VEAT 240300Z 14003KT 5000 BR FEW010 SCT018 BKN100 29/26 Q1003 NOSIG=
Ahmedabad  
VAAH 240300Z 20004KT 4000 -TSRA FEW012 SCT020 FEW030CB OVC080 25/23 Q1003 NOSIG=
Allahabad  
VEAB 240130Z 18004KT 6000 BKN250 32/22 Q0999 NOSIG=
Amritsar   
VIAR 240300Z VRB02KT 5000 HZ NSC 34/17 Q1000 NOSIG=
Bangalore  
VOBL 240300Z 26012KT 6000 SCT012 SCT080 22/22 Q1013 NOSIG=
Baroda     
VABO 240300Z 05002KT 5000 -RA SCT012 SCT020 BKN080 26/24 Q1003 NOSIG=
Bhopal     
VABP 240300Z 27006KT 6000 NSC 28/22 Q1005=
Bhubaneswar
VEBS 240300Z 23008KT 5000 HZ BKN018 BKN100 28/27 Q1003 TEMPO 3000 -RA=
Bhuntar    
VIBR 240300Z 00000KT 6000 NSC 22/13 Q1009=
Chennai    
VOMM 240300Z 25008KT 8000 FEW020 SCT080 32/22 Q1007 NOSIG=
Coimbatore 
VOCB 240300Z 18008KT 7000 FEW015 26/22 Q1011 NOSIG=
Colombo    
VCBI 240210Z 16004KT 140V210 9999 SCT018 FEW020CB 25/24 Q1009 NOSIG RMK S/SW/W=
Delhi      
VIDP 240300Z 32006KT 3000 HZ FEW040 SCT100 35/18 Q1001 NOSIG=
Dehradun   
VIDN 240300Z 26003KT 4000 HZ NSC 30/25 Q1002 =
Gauhati    
VEGT 240300Z NIL=
Gaya       
VEGY 240300Z 26010KT 3500 HZ SCT100 33/26 Q1000 =
Gaggal     
VIGG 240300Z 14002KT 6000 NSC 29/22 Q1005=
Hyderabad  
VOHS 240300Z 27009KT 6000 SCT015 SCT100 26/23 Q1009 NOSIG=
Indore     
VAID 240300Z 29008KT 5000 HZ /-TS SCT020 FEWCB030 BKN100 26/22 Q1006=
Jaipur     
VIJP 240300Z 14010KT 2000 HZ SCT030 BKN100 33/18 Q1002 NOSIG=
Khajuraho  
VEKO 240300Z 18005KT 6000 FEW020 35/22 Q1002=
Kochi      
VOCI 240300Z 00000KT 4000 BR FEW012 27/24 Q1009 NOSIG=
Kolkata    
VECC 240300Z 21009KT 3200 HZ SCT018 FEW030CB BKN100 31/28 Q1001 TEMPO TL0500 22020G30KT 1500 TSRA=
Kozhikode  
VOCL 240300Z 06003KT 6000 FEW012 BKN090 27/24 Q1009 NOSIG=
Lucknow    
VILK 240300Z 25004KT 3000 HZ NSC 35/22 Q0999 NOSIG=
Madurai    
VOMD 240300Z 00000KT 7000 FEW020 30/22 Q1009 NOSIG=
Mohanbari  
VEMN 240300Z 00000KT 1500 -RA SCT008 SCT018 FEW025CB OVC090 26/26 Q1003 TEMPO 0800 RA=
Mumbai     
VABB 240300Z 16004KT 2500 -RA FEW012 SCT018 FEW030CB BKN090 26/25 Q1005 TEMPO 1500 SHRA=
Nagpur     
VANP 240300Z 19006KT 6000 FEW020 29/25 Q1005 NOSIG=
Patna      
VEPT 240300Z 00000KT 3500 HZ FEW020 SCT100 33/26 Q0999 NOSIG=
Raipur     
VERP 240300Z 23010KT 6000 FEW025 SCT100 30/25 Q1005 NOSIG=
Safdarjung 
VIDD 240300Z 02002KT 3000 HZ FEW040 SCT100 34/22 Q1000 NOSIG=
Shimla     
VISM 240300Z 18001KT 5000 HZ NSC 26/13 Q1012=
Surat     
VASU 240300Z 00000KT 5000 -TSRA SCT010 BKN020 FEW030CB OVC080 27/25 Q1003=
Ranchi     
VERC 240300Z 24004KT 3000 HZ SCT020 BKN100 28/23 Q1005 NOSIG=
Trichy     
VOTR 240300Z 28009KT 6000 FEW016 30/21 Q1007 NOSIG=
Trivandrum 
VOTV 240300Z 33006KT 6000 SCT015 28/24 Q1009 NOSIG=
Udaipur    
VAUD 240300Z 22006KT 4000 HZ FEW030 SCT100 30/23 Q1005 NOSIG=
Varanasi   
VEBN 240300Z 23005KT 3000 HZ FEW100 34/25 Q0999 NOSIG=
Vizag      
VOVZ 240300Z 24008KT 6000 FEW014 FEW025CB BKN080 31/25 Q1004 TEMPO 5000 -TSRA/RA =
Male       
VRMM 240200Z 24007KT 9999 FEW018 FEW019CB BKN280 28/23 Q1010 CB N,SE TEMPO 7000 -TSRA=
Gan        
VRMG 240200Z 18005KT 9999 FEW018 BKN270 28/25 Q1010 NOSIG =
Kathmandu  
VNKT 240300Z NIL=
Dhaka      
VGHS 240300Z 15007KT 3500 HZ SCT012 FEW025CB BKN100 30/27 Q1002 TEMPO TSRA=
Colombo    
VCBI 240210Z 16004KT 140V210 9999 SCT018 FEW020CB 25/24 Q1009 NOSIG RMK S/SW/W=
Karachi    
OPKC 240255Z 24008KT 6000 BKN020 31/23 Q1001 NOSIG=
Lahore     
OPLA 240255Z 30004KT 4000 FU NSC 34/23 Q1000 A29.53 NOSIG=
Sri Nagar  
VISR 240230Z VRB01KT 6000 FEW100 18/14 Q1016 NOSIG=
Jammu      
VIJU 240130Z 35004KT 6000 FEW090 30/14 Q999 NOSIG =
Gorakhpur  
VEGK 240230Z 08007KT 6000 FEW030 SCT250 30/25 Q1000 NOSIG=
Bagdogra   
VEBD 240300Z 05004KT 6000 -RA BKN010 SCT020 BKN090 27/26 Q1002 TEMPO 3000=
Gwalior    
VIGR 240300Z 23003KT 4000 HZ SCT100 35/21 Q1000=
Pune       
VAPO 240230Z 27005KT 6000 FEW010 SCT020 BKN090 24/21 Q1009 TEMPO -RA=